Springfield, IL (62712)

03:13 AM CDT del 26 Aprile 2015 (GMT -0500)
Northgate Subdivision | | Change Station
CLOSE
Current Station
Stazione meteo personale
Location: Springfield, IL
Altitudine: 590 ft
Stazioni meteo nelle vicinanze

Alt. 590 ft 39.83 °N, 89.61 °W | Updated 1 second ago

Coperto
Coperto
46.2 °F
Sembra 46 °F
N
2.9
Vento Variabile Vento da ENE
Gusts 2.9 mph

Oggi
Massima -- | Minima -- °F
--% Possibilità di precip.
Ieri
Massima -- | Minima -- °F
Precip. -- in
6:05 AM 7:47 PM
Primo quarto, 53% visible
Pressione 29.85 in
Visibilità 8.0 miglia
Nuvole Molto nuvoloso 2000 ft
Coperto 4000 ft
Raffreddamento del vento 46 °F
Punto di rugiada 42 °F
Umidità 84%
Piovosità 0.00 in
Spessore del manto nevoso Non disponibile.
Raggi UV 0 fuori da 12
Polline .90 fuori da 12
Qualità dell'aria Non disponibile.
Flu Activity Regional
METAR KSPI 260752Z AUTO 03012KT 8SM BKN020 OVC040 08/06 A2984 RMK AO2 SLP107 T00830056

More Conditions Fewer Conditions

Pressione 29.85 in
Visibilità 8.0 miglia
Nuvole Molto nuvoloso 2000 ft
Coperto 4000 ft
Raffreddamento del vento 46 °F
Punto di rugiada 42 °F
Umidità 84%
Piovosità 0.00 in
Spessore del manto nevoso Non disponibile.
Raggi UV 0 fuori da 12
Polline .90 fuori da 12
Qualità dell'aria Non disponibile.
Flu Activity Regional
METAR KSPI 260752Z AUTO 03012KT 8SM BKN020 OVC040 08/06 A2984 RMK AO2 SLP107 T00830056

More Conditions Fewer Conditions

The full scope of the disaster following a powerful 7.8-magnitude earthquake in Nepal may not come into view for days, but global charities are already sending emergency aid. Click to see how you can help.

10-Day Weather Forecast

Almanac

Astronomia

Apr. 26, 2015 Alba Tramonto
Ora attuale
Crepuscolo civile
Crepuscolo nautico
Crepuscolo astronomico
Luna
Estensione della luce visibile
Lunghezza del giorno
Tomorrow will be .
, % of the Moon is Illuminated

Gli estremi di oggi

State Highs State Lows

Community

WunderPhotos

Upload Photos

1,816,953 foto caricate!

WunderBlogs® & News

Nearby

Qualità dell'aria

  Qualità dell'aria Indice AQ Inquinante
Not available.

Profondità neve

Stazione Profondità Altitudine

Attività sismica

Città  Distanza Mag. Data & Ora
Minimo Magnitudo Mostrato è 2.5.

Temperature delle acque costiere

Località Temperatura

Stations

Stazioni meteo nelle vicinanze

Ubicazione della stazione Temp. Raffreddamento del vento Punto di rugiada Umidità Vento Precip. Alt. Aggiornato Tipo